Terminal Aerodrome Forecast
Issued by NWS

Home | Current Version | Previous Version | Graphics & Text | Print | Product List | Glossary On
Versions: 1 2 3 4 5 6 7 8 9 10 11 12 13 14 15 16 17 18 19 20 21 22 23 24
497
FTUS41 KCLE 092250 AAC
TAFFDY
TAF AMD
KFDY 092250Z 0923/1018 28015G22KT P6SM OVC025
     FM100100 27012G20KT P6SM OVC018
     FM100600 27012KT P6SM OVC015
     FM100900 28012KT 4SM -SN OVC015
     FM101400 29014KT P6SM OVC025=

USA.gov is the U.S. government's official web portal to all federal, state and local government web resources and services.